Time;durP1;ratioP1;P1;durP2;ratioP2;P2;SDS_P1;SDS_P2;PMS_P1;PMS_P2;Temp;Humidity;BMP_temperature;BMP_pressure;BME280_temperature;BME280_humidity;BME280_pressure;Samples;Min_cycle;Max_cycle;Signal;HPM_P1;HPM_P2
2022/02/25 00:00:12;;;;;;;80.57;32.40;;;;;;;;;;4450331;32;20303;-56
2022/02/25 00:02:37;;;;;;;67.93;28.03;;;;;;;;;;4450215;32;20276;-55
2022/02/25 00:05:03;;;;;;;49.93;23.97;;;;;;;;;;4450211;32;20291;-55
2022/02/25 00:07:29;;;;;;;59.20;25.67;;;;;;;;;;4449945;32;20228;-54
2022/02/25 00:09:54;;;;;;;49.20;23.17;;;;;;;;;;4450329;32;20240;-56
2022/02/25 00:12:20;;;;;;;47.90;21.33;;;;;;;;;;4449883;32;20295;-56
2022/02/25 00:14:45;;;;;;;46.97;20.73;;;;;;;;;;4436224;32;20244;-55
2022/02/25 00:17:11;;;;;;;34.93;17.33;;;;;;;;;;4450062;32;20588;-55
2022/02/25 00:19:36;;;;;;;38.73;17.13;;;;;;;;;;4450186;32;20355;-55
2022/02/25 00:22:02;;;;;;;33.50;17.73;;;;;;;;;;4449933;32;20428;-57
2022/02/25 00:24:27;;;;;;;70.00;25.93;;;;;;;;;;4450449;32;20291;-56
2022/02/25 00:26:53;;;;;;;57.20;25.40;;;;;;;;;;4446150;32;20233;-57
2022/02/25 00:29:18;;;;;;;59.07;27.27;;;;;;;;;;4434559;32;20765;-56
2022/02/25 00:31:44;;;;;;;61.33;23.30;;;;;;;;;;4434959;32;20647;-55
2022/02/25 00:34:09;;;;;;;41.63;19.67;;;;;;;;;;4435007;32;20322;-55
2022/02/25 00:36:35;;;;;;;44.97;17.97;;;;;;;;;;4434393;32;20315;-57
2022/02/25 00:39:00;;;;;;;53.20;19.63;;;;;;;;;;4436020;32;20769;-56
2022/02/25 00:41:25;;;;;;;38.10;17.83;;;;;;;;;;4449551;32;20213;-55
2022/02/25 00:43:51;;;;;;;47.23;18.10;;;;;;;;;;4449870;32;20272;-58
2022/02/25 00:46:17;;;;;;;47.03;21.10;;;;;;;;;;4435172;32;20311;-56
2022/02/25 00:48:43;;;;;;;46.43;19.13;;;;;;;;;;4435642;32;20303;-56
2022/02/25 00:51:08;;;;;;;43.00;20.73;;;;;;;;;;4435657;32;20247;-56
2022/02/25 00:53:34;;;;;;;49.47;22.03;;;;;;;;;;4449602;32;20223;-56
2022/02/25 00:55:59;;;;;;;63.97;26.93;;;;;;;;;;4435306;32;20277;-54
2022/02/25 00:58:24;;;;;;;51.73;25.90;;;;;;;;;;4449290;32;20588;-55
2022/02/25 01:00:50;;;;;;;46.53;23.30;;;;;;;;;;4449845;32;20275;-55
2022/02/25 01:03:15;;;;;;;53.17;25.73;;;;;;;;;;4435396;32;20292;-58
2022/02/25 01:05:41;;;;;;;64.77;27.37;;;;;;;;;;4449340;32;20212;-55
2022/02/25 01:08:08;;;;;;;68.10;26.60;;;;;;;;;;4449251;32;20261;-55
2022/02/25 01:10:35;;;;;;;59.20;28.07;;;;;;;;;;4449662;32;20209;-55
2022/02/25 01:13:01;;;;;;;56.03;24.23;;;;;;;;;;4425172;32;20249;-55
2022/02/25 01:15:27;;;;;;;56.90;26.43;;;;;;;;;;4440512;32;20302;-55
2022/02/25 01:17:52;;;;;;;66.77;26.80;;;;;;;;;;4449200;32;20268;-55
2022/02/25 01:20:18;;;;;;;61.43;25.87;;;;;;;;;;4435189;32;20286;-56
2022/02/25 01:22:44;;;;;;;50.63;24.13;;;;;;;;;;4449102;32;20234;-55
2022/02/25 01:25:11;;;;;;;52.90;23.43;;;;;;;;;;4449476;32;20228;-55
2022/02/25 01:27:36;;;;;;;34.37;18.03;;;;;;;;;;4449189;32;20220;-55
2022/02/25 01:30:04;;;;;;;41.53;18.27;;;;;;;;;;4449150;32;20299;-55
2022/02/25 01:32:30;;;;;;;33.10;16.03;;;;;;;;;;4434917;32;20250;-57
2022/02/25 01:34:56;;;;;;;33.43;17.87;;;;;;;;;;4434902;32;20224;-55
2022/02/25 01:37:22;;;;;;;48.00;19.80;;;;;;;;;;4448753;32;20224;-55
2022/02/25 01:39:47;;;;;;;40.90;17.60;;;;;;;;;;4449085;32;20233;-55
2022/02/25 01:42:13;;;;;;;49.87;26.17;;;;;;;;;;4448558;32;20280;-57
2022/02/25 01:44:41;;;;;;;56.33;31.47;;;;;;;;;;4434882;32;20664;-57
2022/02/25 01:47:07;;;;;;;55.23;26.13;;;;;;;;;;4434813;32;20212;-55
2022/02/25 01:49:33;;;;;;;30.57;16.37;;;;;;;;;;4448861;32;20288;-55
2022/02/25 01:52:02;;;;;;;30.40;14.77;;;;;;;;;;4448822;32;20311;-56
2022/02/25 01:54:28;;;;;;;30.40;16.23;;;;;;;;;;4448714;32;20248;-56
2022/02/25 01:56:55;;;;;;;27.60;13.17;;;;;;;;;;4434487;32;20216;-55
2022/02/25 01:59:21;;;;;;;34.80;16.17;;;;;;;;;;4448563;32;20209;-55
2022/02/25 02:01:47;;;;;;;34.63;15.40;;;;;;;;;;4448633;32;20906;-55
2022/02/25 02:04:13;;;;;;;36.87;16.60;;;;;;;;;;4448898;32;20363;-57
2022/02/25 02:06:39;;;;;;;38.87;18.27;;;;;;;;;;4448374;32;20273;-55
2022/02/25 02:09:06;;;;;;;39.10;18.90;;;;;;;;;;4448597;32;20726;-55
2022/02/25 02:11:33;;;;;;;45.50;20.43;;;;;;;;;;4448607;32;20216;-56
2022/02/25 02:14:00;;;;;;;55.23;26.60;;;;;;;;;;4448248;32;20731;-55
2022/02/25 02:16:25;;;;;;;74.37;28.60;;;;;;;;;;4448249;32;20250;-55
2022/02/25 02:18:52;;;;;;;61.37;26.50;;;;;;;;;;4448433;32;20264;-57
2022/02/25 02:21:17;;;;;;;57.13;24.83;;;;;;;;;;4448111;32;20364;-56
2022/02/25 02:23:43;;;;;;;48.90;24.27;;;;;;;;;;4448155;32;20322;-56
2022/02/25 02:26:09;;;;;;;52.10;26.07;;;;;;;;;;4448358;32;20641;-56
2022/02/25 02:28:34;;;;;;;49.93;24.63;;;;;;;;;;4433428;32;20213;-55
2022/02/25 02:30:59;;;;;;;62.30;27.40;;;;;;;;;;4432982;32;20213;-55
2022/02/25 02:33:25;;;;;;;61.93;27.63;;;;;;;;;;4432614;32;20204;-56
2022/02/25 02:35:51;;;;;;;56.47;27.00;;;;;;;;;;4432733;32;20255;-57
2022/02/25 02:38:16;;;;;;;68.90;28.90;;;;;;;;;;4437286;32;20659;-57
2022/02/25 02:40:42;;;;;;;69.57;29.87;;;;;;;;;;4434107;32;20288;-55
2022/02/25 02:43:10;;;;;;;84.73;33.83;;;;;;;;;;4447882;32;20196;-56
2022/02/25 02:45:36;;;;;;;58.40;26.70;;;;;;;;;;4433978;32;20281;-56
2022/02/25 02:48:03;;;;;;;68.40;26.70;;;;;;;;;;4447910;32;20271;-55
2022/02/25 02:50:28;;;;;;;53.07;21.90;;;;;;;;;;4448200;32;20312;-54
2022/02/25 02:52:54;;;;;;;41.00;17.97;;;;;;;;;;4448471;32;20303;-57
2022/02/25 02:55:19;;;;;;;37.77;15.67;;;;;;;;;;4448178;32;20637;-57
2022/02/25 02:57:45;;;;;;;41.47;15.97;;;;;;;;;;4447711;32;20219;-57
2022/02/25 03:00:13;;;;;;;32.50;16.07;;;;;;;;;;4433429;32;20293;-56
2022/02/25 03:02:39;;;;;;;28.93;16.20;;;;;;;;;;4433595;32;20216;-56
2022/02/25 03:05:05;;;;;;;40.20;17.07;;;;;;;;;;4433772;32;20290;-55
2022/02/25 03:07:30;;;;;;;41.20;19.73;;;;;;;;;;4447900;32;20638;-56
2022/02/25 03:09:56;;;;;;;49.80;23.33;;;;;;;;;;4448122;32;20339;-56
2022/02/25 03:12:21;;;;;;;51.63;22.27;;;;;;;;;;4447741;32;20593;-55
2022/02/25 03:14:47;;;;;;;36.50;16.57;;;;;;;;;;4447523;32;20254;-55
2022/02/25 03:17:14;;;;;;;34.97;18.47;;;;;;;;;;4448004;32;20432;-55
2022/02/25 03:19:41;;;;;;;27.73;14.17;;;;;;;;;;4447426;32;20251;-54
2022/02/25 03:22:06;;;;;;;29.50;14.80;;;;;;;;;;4447727;32;20200;-55
2022/02/25 03:24:32;;;;;;;26.57;13.93;;;;;;;;;;4447822;32;20505;-55
2022/02/25 03:26:58;;;;;;;28.33;14.80;;;;;;;;;;4447391;32;20200;-55
2022/02/25 03:29:23;;;;;;;29.47;15.27;;;;;;;;;;4447456;32;20343;-55
2022/02/25 03:31:49;;;;;;;37.33;16.67;;;;;;;;;;4447413;32;20192;-55
2022/02/25 03:34:14;;;;;;;38.50;18.07;;;;;;;;;;4447171;32;20653;-56
2022/02/25 03:36:40;;;;;;;29.70;13.93;;;;;;;;;;4447959;32;20689;-55
2022/02/25 03:39:06;;;;;;;27.03;13.33;;;;;;;;;;4447443;32;20639;-55
2022/02/25 03:41:32;;;;;;;21.63;13.13;;;;;;;;;;4447845;32;20216;-56
2022/02/25 03:43:58;;;;;;;27.57;13.43;;;;;;;;;;4447859;32;20276;-56
2022/02/25 03:46:24;;;;;;;27.47;13.17;;;;;;;;;;4447878;32;20247;-57
2022/02/25 03:48:50;;;;;;;29.33;13.97;;;;;;;;;;4447492;32;20307;-56
2022/02/25 03:51:17;;;;;;;41.53;16.60;;;;;;;;;;4433713;32;20284;-57
2022/02/25 03:53:42;;;;;;;25.87;14.53;;;;;;;;;;4447559;32;20625;-56
2022/02/25 03:56:08;;;;;;;32.17;14.43;;;;;;;;;;4447477;32;20216;-57
2022/02/25 03:58:34;;;;;;;21.53;11.83;;;;;;;;;;4447316;32;20581;-57
2022/02/25 04:01:00;;;;;;;23.60;10.77;;;;;;;;;;4447695;32;20225;-56
2022/02/25 04:03:25;;;;;;;24.53;10.57;;;;;;;;;;4447400;32;20639;-55
2022/02/25 04:05:51;;;;;;;20.73;11.70;;;;;;;;;;4447620;32;20257;-54
2022/02/25 04:08:17;;;;;;;25.17;11.37;;;;;;;;;;4447557;32;20293;-56
2022/02/25 04:10:42;;;;;;;21.27;11.20;;;;;;;;;;4447535;32;20542;-55
2022/02/25 04:13:08;;;;;;;27.23;11.10;;;;;;;;;;4449943;32;20323;-57
2022/02/25 04:15:34;;;;;;;27.90;12.73;;;;;;;;;;4436422;32;20242;-55
2022/02/25 04:18:00;;;;;;;28.43;12.97;;;;;;;;;;4450130;32;20264;-57
2022/02/25 04:20:26;;;;;;;34.20;17.77;;;;;;;;;;4450199;32;20577;-58
2022/02/25 04:22:52;;;;;;;39.97;18.53;;;;;;;;;;4450176;32;20287;-56
2022/02/25 04:25:17;;;;;;;38.87;20.60;;;;;;;;;;4450594;32;20356;-57
2022/02/25 04:27:44;;;;;;;59.47;23.53;;;;;;;;;;4440850;32;20304;-56
2022/02/25 04:30:11;;;;;;;50.57;24.63;;;;;;;;;;4435628;32;20220;-55
2022/02/25 04:32:36;;;;;;;54.00;28.97;;;;;;;;;;4435900;32;20331;-56
2022/02/25 04:35:03;;;;;;;50.70;27.27;;;;;;;;;;4449996;32;20309;-56
2022/02/25 04:37:29;;;;;;;53.67;25.50;;;;;;;;;;4450297;32;20601;-55
2022/02/25 04:39:55;;;;;;;48.87;22.13;;;;;;;;;;4435669;32;20716;-56
2022/02/25 04:42:21;;;;;;;38.03;18.97;;;;;;;;;;4435808;32;20250;-55
2022/02/25 04:44:46;;;;;;;46.53;21.97;;;;;;;;;;4435851;32;20569;-55
2022/02/25 04:47:12;;;;;;;81.07;38.63;;;;;;;;;;4450058;32;20609;-57
2022/02/25 04:49:37;;;;;;;56.50;29.77;;;;;;;;;;4450015;32;20323;-59
2022/02/25 04:52:03;;;;;;;47.77;25.97;;;;;;;;;;4449723;32;20308;-57
2022/02/25 04:54:29;;;;;;;43.50;22.23;;;;;;;;;;4449773;32;20276;-57
2022/02/25 04:56:55;;;;;;;48.93;25.33;;;;;;;;;;4450019;32;20283;-56
2022/02/25 04:59:20;;;;;;;53.53;25.50;;;;;;;;;;4449689;32;20267;-56
2022/02/25 05:01:46;;;;;;;55.40;25.13;;;;;;;;;;4435528;32;20284;-57
2022/02/25 05:04:13;;;;;;;41.00;21.67;;;;;;;;;;4422623;32;20326;-57
2022/02/25 05:06:39;;;;;;;38.70;20.20;;;;;;;;;;4435377;32;20647;-58
2022/02/25 05:09:04;;;;;;;39.50;21.30;;;;;;;;;;4422511;32;20303;-57
2022/02/25 05:11:30;;;;;;;41.67;23.13;;;;;;;;;;4449471;32;20651;-58
2022/02/25 05:13:56;;;;;;;45.90;27.37;;;;;;;;;;4449509;32;20332;-56
2022/02/25 05:21:52;;;;;;;55.63;25.87;;;;;;;;;;4449518;32;20286;-57
2022/02/25 05:24:18;;;;;;;60.80;25.57;;;;;;;;;;4449203;32;20272;-57
2022/02/25 05:26:44;;;;;;;41.97;22.33;;;;;;;;;;4447417;32;20216;-57
2022/02/25 05:29:09;;;;;;;55.17;21.00;;;;;;;;;;4449366;32;20279;-58
2022/02/25 05:31:36;;;;;;;38.40;19.20;;;;;;;;;;4449264;32;20353;-57
2022/02/25 05:34:02;;;;;;;32.73;17.80;;;;;;;;;;4447468;32;20322;-54
2022/02/25 05:36:27;;;;;;;54.07;20.37;;;;;;;;;;4448947;32;20308;-56
2022/02/25 05:38:55;;;;;;;43.30;19.63;;;;;;;;;;4449190;32;20332;-58
2022/02/25 05:41:21;;;;;;;41.73;19.80;;;;;;;;;;4449133;32;20339;-56
2022/02/25 05:43:47;;;;;;;32.80;19.13;;;;;;;;;;4449042;32;20612;-56
2022/02/25 05:46:14;;;;;;;38.00;18.83;;;;;;;;;;4447355;32;20323;-56
2022/02/25 05:48:39;;;;;;;34.97;17.70;;;;;;;;;;4448315;32;20617;-56
2022/02/25 05:51:05;;;;;;;42.40;20.93;;;;;;;;;;4446643;32;20321;-55
2022/02/25 05:53:31;;;;;;;49.73;27.27;;;;;;;;;;4448395;32;20219;-57
2022/02/25 05:55:56;;;;;;;52.03;26.77;;;;;;;;;;4448203;32;20452;-57
2022/02/25 05:58:22;;;;;;;59.13;29.87;;;;;;;;;;4446676;32;20633;-55
2022/02/25 06:00:47;;;;;;;61.13;27.13;;;;;;;;;;4448261;32;20743;-56
2022/02/25 06:03:13;;;;;;;50.57;25.43;;;;;;;;;;4447154;32;20280;-54
2022/02/25 06:05:38;;;;;;;53.43;27.47;;;;;;;;;;4446492;32;20244;-55
2022/02/25 06:08:04;;;;;;;73.07;32.80;;;;;;;;;;4447138;32;20192;-55
2022/02/25 06:10:30;;;;;;;64.83;35.13;;;;;;;;;;4447786;32;20282;-55
2022/02/25 06:12:56;;;;;;;89.27;44.17;;;;;;;;;;4447216;32;20682;-57
2022/02/25 06:15:21;;;;;;;72.90;38.30;;;;;;;;;;4448100;32;20224;-56
2022/02/25 06:17:50;;;;;;;87.67;40.20;;;;;;;;;;4446649;32;20780;-56
2022/02/25 06:20:17;;;;;;;79.97;35.83;;;;;;;;;;4447576;32;20765;-56
2022/02/25 06:22:42;;;;;;;94.80;37.67;;;;;;;;;;4448368;32;20193;-56
2022/02/25 06:25:08;;;;;;;74.80;36.47;;;;;;;;;;4448424;32;20280;-55
2022/02/25 06:27:37;;;;;;;80.80;37.30;;;;;;;;;;4440145;32;20262;-57
2022/02/25 06:30:04;;;;;;;77.07;37.17;;;;;;;;;;4432446;32;20288;-55
2022/02/25 06:32:30;;;;;;;75.77;37.80;;;;;;;;;;4431768;32;20872;-57
2022/02/25 06:34:55;;;;;;;74.07;34.67;;;;;;;;;;4434307;32;20675;-56
2022/02/25 06:37:21;;;;;;;67.40;33.17;;;;;;;;;;4447776;32;20216;-56
2022/02/25 06:39:47;;;;;;;86.13;40.20;;;;;;;;;;4446453;32;20585;-56
2022/02/25 06:42:13;;;;;;;102.63;45.27;;;;;;;;;;4449080;32;20295;-56
2022/02/25 06:44:38;;;;;;;85.83;41.97;;;;;;;;;;4447868;32;20256;-57
2022/02/25 06:47:04;;;;;;;93.53;42.33;;;;;;;;;;4462389;32;20267;-55
2022/02/25 06:49:30;;;;;;;69.50;38.67;;;;;;;;;;4447230;32;20526;-56
2022/02/25 06:51:55;;;;;;;63.70;31.93;;;;;;;;;;4436478;32;20299;-59
2022/02/25 06:54:21;;;;;;;71.40;33.10;;;;;;;;;;4445063;32;20779;-55
2022/02/25 06:56:46;;;;;;;68.83;32.10;;;;;;;;;;4444310;32;20315;-56
2022/02/25 06:59:12;;;;;;;60.30;31.00;;;;;;;;;;4447094;32;20728;-57
2022/02/25 07:01:37;;;;;;;74.53;35.33;;;;;;;;;;4447000;32;20248;-55
2022/02/25 07:04:04;;;;;;;144.03;68.90;;;;;;;;;;4447076;32;20329;-56
2022/02/25 07:06:29;;;;;;;80.70;37.47;;;;;;;;;;4447269;32;20308;-57
2022/02/25 07:08:55;;;;;;;77.67;37.13;;;;;;;;;;4447660;32;20735;-58
2022/02/25 07:11:21;;;;;;;45.67;26.00;;;;;;;;;;4446625;32;20383;-56
2022/02/25 07:13:47;;;;;;;61.50;31.90;;;;;;;;;;4446021;32;20885;-58
2022/02/25 07:16:12;;;;;;;70.17;36.00;;;;;;;;;;4447125;32;20246;-55
2022/02/25 07:18:38;;;;;;;73.63;37.10;;;;;;;;;;4446018;32;20303;-57
2022/02/25 07:21:03;;;;;;;71.27;37.27;;;;;;;;;;4435148;32;20388;-55
2022/02/25 07:23:29;;;;;;;70.90;39.47;;;;;;;;;;4461630;32;20219;-56
2022/02/25 07:25:54;;;;;;;71.83;34.97;;;;;;;;;;4462833;32;20306;-56
2022/02/25 07:28:20;;;;;;;70.60;33.70;;;;;;;;;;4462777;32;20200;-55
2022/02/25 07:30:45;;;;;;;50.30;27.20;;;;;;;;;;4439998;32;20237;-55
2022/02/25 07:33:11;;;;;;;45.70;22.03;;;;;;;;;;4431337;32;20354;-55
2022/02/25 07:35:36;;;;;;;36.30;20.27;;;;;;;;;;4431626;32;20319;-56
2022/02/25 07:38:02;;;;;;;41.30;22.17;;;;;;;;;;4431705;32;20228;-55
2022/02/25 07:40:28;;;;;;;31.07;19.30;;;;;;;;;;4445340;32;20228;-54
2022/02/25 07:42:54;;;;;;;34.27;18.47;;;;;;;;;;4446938;32;20686;-57
2022/02/25 07:45:20;;;;;;;34.57;18.83;;;;;;;;;;4446759;32;20664;-55
2022/02/25 07:47:45;;;;;;;29.83;18.17;;;;;;;;;;4448711;32;20221;-55
2022/02/25 07:50:13;;;;;;;39.77;18.37;;;;;;;;;;4450026;32;20645;-55
2022/02/25 07:52:40;;;;;;;31.27;18.03;;;;;;;;;;4448613;32;20744;-55
2022/02/25 07:55:07;;;;;;;27.10;16.50;;;;;;;;;;4449148;32;20312;-54
2022/02/25 07:57:35;;;;;;;49.80;23.80;;;;;;;;;;4449586;32;20235;-54
2022/02/25 08:00:00;;;;;;;41.17;20.60;;;;;;;;;;4449762;32;20657;-53
2022/02/25 08:02:26;;;;;;;28.23;15.63;;;;;;;;;;4449708;32;20292;-54
2022/02/25 08:04:51;;;;;;;22.00;13.00;;;;;;;;;;4434835;32;20724;-54
2022/02/25 08:07:17;;;;;;;25.07;12.00;;;;;;;;;;4431743;32;20213;-53
2022/02/25 08:09:42;;;;;;;18.70;10.27;;;;;;;;;;4431565;32;20229;-54
2022/02/25 08:12:08;;;;;;;22.67;12.10;;;;;;;;;;4430713;32;20232;-54
2022/02/25 08:14:37;;;;;;;16.27;10.43;;;;;;;;;;4441779;32;20802;-54
2022/02/25 08:17:04;;;;;;;20.73;11.10;;;;;;;;;;4449158;32;20331;-54
2022/02/25 08:19:30;;;;;;;12.43;8.30;;;;;;;;;;4448301;32;20244;-54
2022/02/25 08:21:55;;;;;;;26.20;10.10;;;;;;;;;;4449632;32;20679;-54
2022/02/25 08:24:21;;;;;;;16.30;8.77;;;;;;;;;;4449622;32;20359;-54
2022/02/25 08:26:46;;;;;;;25.50;13.10;;;;;;;;;;4449490;32;20213;-55
2022/02/25 08:29:12;;;;;;;24.77;12.10;;;;;;;;;;4449340;32;20352;-54
2022/02/25 08:31:37;;;;;;;19.80;10.77;;;;;;;;;;4447848;32;20240;-54
2022/02/25 08:34:03;;;;;;;17.37;9.30;;;;;;;;;;4449522;32;20334;-56
2022/02/25 08:36:29;;;;;;;26.27;11.80;;;;;;;;;;4449800;32;20220;-55
2022/02/25 08:38:54;;;;;;;17.03;9.60;;;;;;;;;;4449245;32;20268;-57
2022/02/25 08:41:20;;;;;;;17.23;8.97;;;;;;;;;;4449153;32;20237;-55
2022/02/25 08:43:47;;;;;;;17.17;9.87;;;;;;;;;;4449274;32;20311;-56
2022/02/25 08:46:13;;;;;;;15.30;9.37;;;;;;;;;;4449603;32;20266;-54
2022/02/25 08:48:39;;;;;;;17.70;9.80;;;;;;;;;;4449089;32;20228;-55
2022/02/25 08:51:05;;;;;;;22.40;9.43;;;;;;;;;;4447786;32;20594;-54
2022/02/25 08:53:31;;;;;;;26.27;11.77;;;;;;;;;;4448927;32;20273;-55
2022/02/25 08:55:57;;;;;;;14.60;8.67;;;;;;;;;;4448153;32;20381;-55
2022/02/25 08:58:22;;;;;;;27.67;12.33;;;;;;;;;;4447491;32;20306;-54
2022/02/25 09:00:48;;;;;;;21.67;11.10;;;;;;;;;;4448373;32;20284;-55
2022/02/25 09:03:14;;;;;;;27.10;12.63;;;;;;;;;;4447370;32;20223;-54
2022/02/25 09:05:39;;;;;;;21.80;11.07;;;;;;;;;;4432356;32;20244;-53
2022/02/25 09:08:05;;;;;;;21.87;9.97;;;;;;;;;;4433414;32;20271;-55
2022/02/25 09:10:31;;;;;;;26.00;10.60;;;;;;;;;;4433488;32;20577;-54
2022/02/25 09:12:57;;;;;;;30.57;11.87;;;;;;;;;;4433420;32;20639;-55
2022/02/25 09:15:26;;;;;;;23.70;10.43;;;;;;;;;;4440657;32;20343;-55
2022/02/25 09:17:59;;;;;;;6.70;4.80;;;;;;;;;;4448834;32;20273;-55
2022/02/25 09:20:26;;;;;;;17.00;7.17;;;;;;;;;;4448679;32;20676;-54
2022/02/25 09:22:52;;;;;;;20.93;7.73;;;;;;;;;;4448496;32;20204;-54
2022/02/25 09:25:18;;;;;;;52.67;16.27;;;;;;;;;;4448274;32;20264;-55
2022/02/25 09:27:44;;;;;;;16.77;7.43;;;;;;;;;;4448618;32;20235;-54
2022/02/25 09:30:13;;;;;;;24.53;10.53;;;;;;;;;;4448568;32;20266;-55
2022/02/25 09:32:39;;;;;;;33.23;12.03;;;;;;;;;;4448510;32;20264;-55
2022/02/25 09:35:05;;;;;;;16.87;6.30;;;;;;;;;;4448294;32;20658;-55
2022/02/25 09:37:34;;;;;;;18.63;8.50;;;;;;;;;;4448485;32;20239;-54
2022/02/25 09:40:03;;;;;;;21.77;7.67;;;;;;;;;;4448021;32;20271;-55
2022/02/25 09:42:28;;;;;;;15.87;7.70;;;;;;;;;;4448736;32;20240;-54
2022/02/25 09:44:54;;;;;;;16.27;7.73;;;;;;;;;;4446907;32;20243;-56
2022/02/25 09:47:19;;;;;;;9.97;6.07;;;;;;;;;;4446894;32;20569;-54
2022/02/25 09:49:45;;;;;;;7.47;4.53;;;;;;;;;;4447979;32;20268;-54
2022/02/25 09:52:13;;;;;;;13.43;5.80;;;;;;;;;;4448290;32;20235;-54
2022/02/25 09:54:38;;;;;;;13.00;5.87;;;;;;;;;;4446362;32;20268;-55
2022/02/25 09:57:04;;;;;;;10.83;5.20;;;;;;;;;;4446895;32;20248;-54
2022/02/25 09:59:29;;;;;;;18.37;8.20;;;;;;;;;;4446143;32;20781;-55
2022/02/25 10:02:02;;;;;;;22.43;8.90;;;;;;;;;;4447919;32;20287;-54
2022/02/25 10:04:28;;;;;;;17.87;9.13;;;;;;;;;;4438477;32;20648;-55
2022/02/25 10:06:54;;;;;;;19.57;9.97;;;;;;;;;;4433478;32;20431;-55
2022/02/25 10:09:33;;;;;;;9.77;5.47;;;;;;;;;;4447253;32;20749;-56
2022/02/25 10:12:05;;;;;;;11.37;6.50;;;;;;;;;;4448090;32;20470;-55
2022/02/25 10:14:36;;;;;;;10.57;4.93;;;;;;;;;;4447490;32;20208;-55
2022/02/25 10:17:09;;;;;;;10.57;4.80;;;;;;;;;;4447642;32;20246;-55
2022/02/25 10:19:35;;;;;;;9.13;4.90;;;;;;;;;;4447485;32;20256;-55
2022/02/25 10:22:22;;;;;;;7.60;3.50;;;;;;;;;;4447786;32;20208;-54
2022/02/25 10:24:53;;;;;;;9.47;5.50;;;;;;;;;;4447611;32;20281;-55
2022/02/25 10:27:22;;;;;;;9.73;5.33;;;;;;;;;;4447669;32;20312;-55
2022/02/25 10:29:51;;;;;;;9.93;5.37;;;;;;;;;;4447895;32;20232;-56
2022/02/25 10:32:19;;;;;;;8.77;4.80;;;;;;;;;;4447336;32;20491;-56
2022/02/25 10:34:44;;;;;;;7.60;3.87;;;;;;;;;;4446746;32;20228;-56
2022/02/25 10:37:10;;;;;;;11.27;5.03;;;;;;;;;;4447322;32;20253;-56
2022/02/25 10:39:37;;;;;;;11.83;4.27;;;;;;;;;;4446425;32;20367;-55
2022/02/25 10:42:05;;;;;;;6.70;3.80;;;;;;;;;;4446496;32;20394;-57
2022/02/25 10:44:57;;;;;;;10.43;4.30;;;;;;;;;;4446399;32;20256;-56
2022/02/25 10:47:28;;;;;;;9.27;4.63;;;;;;;;;;4447510;32;20223;-56
2022/02/25 10:50:12;;;;;;;6.40;3.83;;;;;;;;;;4445796;32;20442;-56
2022/02/25 10:52:44;;;;;;;7.37;3.87;;;;;;;;;;4445902;32;20314;-55
2022/02/25 10:55:19;;;;;;;8.87;4.23;;;;;;;;;;4446357;32;20236;-56
2022/02/25 10:57:45;;;;;;;21.13;6.33;;;;;;;;;;4446364;32;20224;-54
2022/02/25 11:00:12;;;;;;;9.10;4.87;;;;;;;;;;4446955;32;20324;-56
2022/02/25 11:02:49;;;;;;;24.10;8.57;;;;;;;;;;4445901;32;20244;-55
2022/02/25 11:05:25;;;;;;;13.37;6.33;;;;;;;;;;4446809;32;20250;-55
2022/02/25 11:07:53;;;;;;;9.67;3.00;;;;;;;;;;4447083;32;20697;-57
2022/02/25 11:10:24;;;;;;;57.73;20.87;;;;;;;;;;4447755;32;20610;-57
2022/02/25 11:12:50;;;;;;;10.60;4.23;;;;;;;;;;4446378;32;20239;-55
2022/02/25 11:15:27;;;;;;;4.93;2.40;;;;;;;;;;4447297;32;20276;-55
2022/02/25 11:17:54;;;;;;;31.70;12.07;;;;;;;;;;4447575;32;20269;-55
2022/02/25 11:20:27;;;;;;;7.50;3.37;;;;;;;;;;4446480;32;20278;-56
2022/02/25 11:23:04;;;;;;;23.97;9.93;;;;;;;;;;4446937;32;20232;-55
2022/02/25 11:25:31;;;;;;;6.50;3.37;;;;;;;;;;4447359;32;20219;-56
2022/02/25 11:27:57;;;;;;;34.50;10.13;;;;;;;;;;4446894;32;20262;-55
2022/02/25 11:30:31;;;;;;;8.77;3.43;;;;;;;;;;4447435;32;20405;-54
2022/02/25 11:32:56;;;;;;;8.10;3.40;;;;;;;;;;4447249;32;20347;-56
2022/02/25 11:35:31;;;;;;;17.97;8.87;;;;;;;;;;4447196;32;20701;-56
2022/02/25 11:38:09;;;;;;;8.53;3.83;;;;;;;;;;4447311;32;20259;-55
2022/02/25 11:40:49;;;;;;;15.47;6.67;;;;;;;;;;4446296;32;20661;-56
2022/02/25 11:43:15;;;;;;;8.73;4.27;;;;;;;;;;4445479;32;20271;-55
2022/02/25 11:45:51;;;;;;;6.60;4.00;;;;;;;;;;4446293;32;20252;-55
2022/02/25 11:48:25;;;;;;;12.87;4.67;;;;;;;;;;4446500;32;20227;-57
2022/02/25 11:50:54;;;;;;;15.00;6.83;;;;;;;;;;4447742;32;20363;-55
2022/02/25 11:53:24;;;;;;;9.93;3.27;;;;;;;;;;4447155;32;20272;-57
2022/02/25 11:55:51;;;;;;;6.67;3.83;;;;;;;;;;4447828;32;20229;-56
2022/02/25 11:58:49;;;;;;;18.10;4.80;;;;;;;;;;4446848;32;20281;-55
2022/02/25 12:01:19;;;;;;;6.20;4.03;;;;;;;;;;4447210;32;20224;-56
2022/02/25 12:04:08;;;;;;;8.07;3.57;;;;;;;;;;4443276;32;20240;-56
2022/02/25 12:07:13;;;;;;;17.10;7.83;;;;;;;;;;4432348;32;20335;-56
2022/02/25 12:09:44;;;;;;;14.40;6.83;;;;;;;;;;4382269;32;20254;-56
2022/02/25 12:12:24;;;;;;;6.17;3.87;;;;;;;;;;4437823;32;20276;-57
2022/02/25 12:15:09;;;;;;;63.07;32.10;;;;;;;;;;4447284;32;20319;-56
2022/02/25 12:17:44;;;;;;;55.50;24.17;;;;;;;;;;4444430;32;20370;-55
2022/02/25 12:20:35;;;;;;;10.50;6.20;;;;;;;;;;4439159;32;20383;-56
2022/02/25 12:23:05;;;;;;;5.30;3.40;;;;;;;;;;4446095;32;20317;-55
2022/02/25 12:25:40;;;;;;;5.57;3.10;;;;;;;;;;4446699;32;20236;-57
2022/02/25 12:28:06;;;;;;;12.70;5.00;;;;;;;;;;4443579;32;20804;-56
2022/02/25 12:30:43;;;;;;;16.10;6.03;;;;;;;;;;4445665;32;20603;-55
2022/02/25 12:33:39;;;;;;;18.70;7.57;;;;;;;;;;4445581;32;20818;-56
2022/02/25 12:36:12;;;;;;;12.47;5.73;;;;;;;;;;4448290;32;20240;-56
2022/02/25 12:38:47;;;;;;;12.17;6.50;;;;;;;;;;4448282;32;20337;-55
2022/02/25 12:41:18;;;;;;;18.47;9.33;;;;;;;;;;4448523;32;20667;-56
2022/02/25 12:43:53;;;;;;;21.10;7.47;;;;;;;;;;4447726;32;20694;-56
2022/02/25 12:46:23;;;;;;;19.60;8.30;;;;;;;;;;4448243;32;20219;-56
2022/02/25 12:48:50;;;;;;;15.87;8.63;;;;;;;;;;4448207;32;20233;-55
2022/02/25 12:51:17;;;;;;;8.30;3.50;;;;;;;;;;4448315;32;20694;-55
2022/02/25 12:53:55;;;;;;;10.90;4.40;;;;;;;;;;4448430;32;20364;-57
2022/02/25 12:56:22;;;;;;;12.83;5.40;;;;;;;;;;4442655;32;20286;-56
2022/02/25 12:58:48;;;;;;;11.83;6.30;;;;;;;;;;4448129;32;20336;-55
2022/02/25 13:01:19;;;;;;;10.83;6.60;;;;;;;;;;4448152;32;20640;-55
2022/02/25 13:03:45;;;;;;;20.50;5.33;;;;;;;;;;4448103;32;20242;-56
2022/02/25 13:06:11;;;;;;;12.27;5.57;;;;;;;;;;4444592;32;20248;-56
2022/02/25 13:08:38;;;;;;;8.23;3.33;;;;;;;;;;4445142;32;20597;-55
2022/02/25 13:11:04;;;;;;;10.77;4.80;;;;;;;;;;4447156;32;20838;-56
2022/02/25 13:13:33;;;;;;;10.07;3.47;;;;;;;;;;4447545;32;20350;-56
2022/02/25 13:16:09;;;;;;;4.17;2.30;;;;;;;;;;4443329;32;20312;-55
2022/02/25 13:18:36;;;;;;;6.73;3.80;;;;;;;;;;4447184;32;20220;-56
2022/02/25 13:21:10;;;;;;;9.03;3.90;;;;;;;;;;4440148;32;20536;-57
2022/02/25 13:23:37;;;;;;;4.83;2.43;;;;;;;;;;4433945;32;20240;-56
2022/02/25 13:26:06;;;;;;;7.90;3.70;;;;;;;;;;4447758;32;20335;-56
2022/02/25 13:28:32;;;;;;;7.33;4.20;;;;;;;;;;4447931;32;20270;-56
2022/02/25 13:30:58;;;;;;;12.23;4.80;;;;;;;;;;4444041;32;20323;-56
2022/02/25 13:33:24;;;;;;;28.13;13.20;;;;;;;;;;4442267;32;20232;-56
2022/02/25 13:35:53;;;;;;;9.50;4.73;;;;;;;;;;4438885;32;20261;-56
2022/02/25 13:38:27;;;;;;;14.60;5.17;;;;;;;;;;4447601;32;20224;-56
2022/02/25 13:40:54;;;;;;;8.27;4.23;;;;;;;;;;4443453;32;20355;-56
2022/02/25 13:43:21;;;;;;;11.13;4.47;;;;;;;;;;4447559;32;20301;-56
2022/02/25 13:45:48;;;;;;;17.47;9.77;;;;;;;;;;4447236;32;20370;-55
2022/02/25 13:54:00;;;;;;;5.07;2.77;;;;;;;;;;4446255;32;20289;-55
2022/02/25 13:56:32;;;;;;;4.87;2.87;;;;;;;;;;4447281;32;20223;-56
2022/02/25 13:59:13;;;;;;;5.33;3.37;;;;;;;;;;4447428;32;20742;-56
2022/02/25 14:01:39;;;;;;;4.03;2.57;;;;;;;;;;4447379;32;20233;-56
2022/02/25 14:04:24;;;;;;;15.60;8.17;;;;;;;;;;4437905;32;20334;-56
2022/02/25 14:06:55;;;;;;;6.50;3.43;;;;;;;;;;4432932;32;20270;-57
2022/02/25 14:09:39;;;;;;;17.17;6.17;;;;;;;;;;4447501;32;20677;-57
2022/02/25 14:12:13;;;;;;;5.90;3.10;;;;;;;;;;4446835;32;20213;-57
2022/02/25 14:14:53;;;;;;;15.20;5.20;;;;;;;;;;4446726;32;20289;-56
2022/02/25 14:17:27;;;;;;;11.07;2.40;;;;;;;;;;4446705;32;20363;-55
2022/02/25 14:20:06;;;;;;;6.73;3.67;;;;;;;;;;4442636;32;20315;-57
2022/02/25 14:22:35;;;;;;;11.77;5.70;;;;;;;;;;4432574;32;20630;-56
2022/02/25 14:25:11;;;;;;;10.67;4.90;;;;;;;;;;4437613;32;20232;-56
2022/02/25 14:27:37;;;;;;;11.13;5.13;;;;;;;;;;4446401;32;20577;-57
2022/02/25 14:30:07;;;;;;;9.10;4.20;;;;;;;;;;4446765;32;20641;-57
2022/02/25 14:32:33;;;;;;;6.77;3.27;;;;;;;;;;4446938;32;20459;-56
2022/02/25 14:34:59;;;;;;;8.30;3.40;;;;;;;;;;4432702;32;20624;-57
2022/02/25 14:37:32;;;;;;;11.90;5.80;;;;;;;;;;4442756;32;20232;-57